createdAt,value
2022-12-27T00:00:44.829Z,94.19
2022-12-27T00:03:13.734Z,94.97
2022-12-27T00:05:43.823Z,93.21
2022-12-27T00:08:11.717Z,93.18
2022-12-27T00:10:41.515Z,91.79
2022-12-27T00:13:09.432Z,91.57
2022-12-27T00:15:37.727Z,91.60
2022-12-27T00:18:05.837Z,89.89
2022-12-27T00:20:33.624Z,88.18
2022-12-27T00:23:02.102Z,87.41
2022-12-27T00:25:29.941Z,85.99
2022-12-27T00:27:59.154Z,86.29
2022-12-27T00:30:26.998Z,85.57
2022-12-27T00:32:54.980Z,85.95
2022-12-27T00:35:24.064Z,86.14
2022-12-27T00:37:51.917Z,86.11
2022-12-27T00:40:19.681Z,85.55
2022-12-27T00:42:47.479Z,85.60
2022-12-27T00:45:16.920Z,85.66
2022-12-27T00:47:44.715Z,85.52
2022-12-27T00:50:12.632Z,85.32
2022-12-27T00:52:40.436Z,84.82
2022-12-27T00:55:09.197Z,83.34
2022-12-27T00:57:36.995Z,84.21
2022-12-27T01:00:10.183Z,84.50
2022-12-27T01:02:39.834Z,84.28
2022-12-27T01:05:08.358Z,83.85
2022-12-27T01:07:36.224Z,83.76
2022-12-27T01:10:04.643Z,83.92
2022-12-27T01:12:32.500Z,83.59
2022-12-27T01:15:00.359Z,83.45
2022-12-27T01:17:30.274Z,84.15
2022-12-27T01:19:59.544Z,84.67
2022-12-27T01:22:27.456Z,84.44
2022-12-27T01:24:55.306Z,85.17
2022-12-27T01:27:23.265Z,83.69
2022-12-27T01:29:51.049Z,82.82
2022-12-27T01:32:18.984Z,83.71
2022-12-27T01:34:46.797Z,83.83
2022-12-27T01:37:15.951Z,84.50
2022-12-27T01:39:43.818Z,84.49
2022-12-27T01:42:34.628Z,85.64
2022-12-27T01:45:04.001Z,84.69
2022-12-27T01:47:44.183Z,86.38
2022-12-27T01:50:19.392Z,86.49
2022-12-27T01:52:52.845Z,85.70
2022-12-27T01:55:28.556Z,85.87
2022-12-27T01:58:00.789Z,86.54
2022-12-27T02:00:28.817Z,85.52
2022-12-27T02:02:57.384Z,84.97
2022-12-27T02:05:26.600Z,84.65
2022-12-27T02:08:10.315Z,83.46
2022-12-27T02:10:39.571Z,83.70
2022-12-27T02:13:07.627Z,84.29
2022-12-27T02:15:35.872Z,83.64
2022-12-27T02:18:03.959Z,83.50
2022-12-27T02:20:44.117Z,83.85
2022-12-27T02:23:53.479Z,83.82
2022-12-27T02:26:38.076Z,83.02
2022-12-27T02:29:19.208Z,82.98
2022-12-27T02:31:53.117Z,83.34
2022-12-27T02:34:26.000Z,84.00
2022-12-27T02:36:59.768Z,84.94
2022-12-27T02:39:29.972Z,84.12
2022-12-27T02:42:16.326Z,83.62
2022-12-27T02:45:03.669Z,84.47
2022-12-27T02:47:49.883Z,84.66
2022-12-27T02:50:36.060Z,84.72
2022-12-27T02:53:11.374Z,86.53
2022-12-27T02:56:13.364Z,85.98
2022-12-27T03:02:15.256Z,87.66
2022-12-27T03:05:03.275Z,87.68
2022-12-27T03:07:41.520Z,86.26
2022-12-27T03:10:35.020Z,87.95
2022-12-27T03:13:39.768Z,86.79
2022-12-27T03:16:17.217Z,87.45
2022-12-27T03:19:00.172Z,87.87
2022-12-27T03:21:49.127Z,87.14
2022-12-27T03:24:37.321Z,85.92
2022-12-27T03:27:10.703Z,87.70
2022-12-27T03:29:56.907Z,87.23
2022-12-27T03:32:39.870Z,87.85
2022-12-27T03:35:16.566Z,88.76
2022-12-27T03:38:05.283Z,88.24
2022-12-27T03:40:40.321Z,88.64
2022-12-27T03:43:12.818Z,87.42
2022-12-27T03:46:16.796Z,87.49
2022-12-27T03:49:06.804Z,88.55
2022-12-27T03:51:41.504Z,87.93
2022-12-27T03:54:16.643Z,88.42
2022-12-27T03:56:44.562Z,89.48
2022-12-27T03:59:13.644Z,89.34
2022-12-27T04:01:43.061Z,89.24
2022-12-27T04:04:11.039Z,89.79
2022-12-27T04:06:40.757Z,90.22
2022-12-27T04:09:28.076Z,91.17
2022-12-27T04:12:13.760Z,90.99
2022-12-27T04:14:59.276Z,90.27
2022-12-27T04:17:45.263Z,90.55
2022-12-27T04:20:30.639Z,90.99
2022-12-27T04:23:17.701Z,90.96
2022-12-27T04:26:03.650Z,90.74
2022-12-27T04:28:48.931Z,91.94
2022-12-27T04:31:34.907Z,90.81
2022-12-27T04:34:20.149Z,91.00
2022-12-27T04:36:48.537Z,91.05
2022-12-27T04:39:17.837Z,91.24
2022-12-27T04:42:03.261Z,91.82
2022-12-27T04:44:59.973Z,92.37
2022-12-27T04:47:45.719Z,92.96
2022-12-27T04:50:40.623Z,91.78
2022-12-27T04:53:29.060Z,91.74
2022-12-27T04:55:58.446Z,91.30
2022-12-27T04:58:26.788Z,90.85
2022-12-27T05:01:19.062Z,90.65
2022-12-27T05:03:49.565Z,91.39
2022-12-27T05:06:18.477Z,91.93
2022-12-27T05:09:09.352Z,91.23
2022-12-27T05:11:56.184Z,90.91
2022-12-27T05:14:24.024Z,91.92
2022-12-27T05:16:51.874Z,90.94
2022-12-27T05:19:19.719Z,90.47
2022-12-27T05:22:01.487Z,90.66
2022-12-27T05:24:48.123Z,90.96
2022-12-27T05:27:17.348Z,91.07
2022-12-27T05:29:45.288Z,91.49
2022-12-27T05:32:13.913Z,90.94
2022-12-27T05:34:42.062Z,91.27
2022-12-27T05:37:10.077Z,91.61
2022-12-27T05:39:37.985Z,91.28
2022-12-27T05:42:06.415Z,91.63
2022-12-27T05:44:35.637Z,92.65
2022-12-27T05:47:03.528Z,91.25
2022-12-27T05:49:31.403Z,91.83
2022-12-27T05:51:59.240Z,91.29
2022-12-27T05:54:27.104Z,91.86
2022-12-27T05:56:55.311Z,91.50
2022-12-27T05:59:23.168Z,92.30
2022-12-27T06:01:52.676Z,92.48
2022-12-27T06:04:20.663Z,92.33
2022-12-27T06:06:48.550Z,92.29
2022-12-27T06:09:16.552Z,92.63
2022-12-27T06:11:44.456Z,92.05
2022-12-27T06:14:12.569Z,92.93
2022-12-27T06:16:40.515Z,93.20
2022-12-27T06:19:09.814Z,93.19
2022-12-27T06:21:37.656Z,92.18
2022-12-27T06:24:06.189Z,92.03
2022-12-27T06:26:34.481Z,92.21
2022-12-27T06:29:02.308Z,92.51
2022-12-27T06:31:30.379Z,92.75
2022-12-27T06:33:58.522Z,92.35
2022-12-27T06:36:29.636Z,92.91
2022-12-27T06:38:57.591Z,93.47
2022-12-27T06:41:25.861Z,93.30
2022-12-27T06:43:56.951Z,92.67
2022-12-27T06:46:25.638Z,93.97
2022-12-27T06:48:53.899Z,93.68
2022-12-27T06:51:22.604Z,93.69
2022-12-27T06:53:51.838Z,94.06
2022-12-27T06:56:21.865Z,94.28
2022-12-27T06:58:51.106Z,94.24
2022-12-27T07:01:21.800Z,93.96
2022-12-27T07:03:51.384Z,93.75
2022-12-27T07:06:20.111Z,93.91
2022-12-27T07:08:48.399Z,94.14
2022-12-27T07:11:19.093Z,94.05
2022-12-27T07:13:48.647Z,93.55
2022-12-27T07:16:19.121Z,94.47
2022-12-27T07:18:49.844Z,93.36
2022-12-27T07:21:20.292Z,93.47
2022-12-27T07:23:48.867Z,93.51
2022-12-27T07:26:19.661Z,94.13
2022-12-27T07:28:48.264Z,94.41
2022-12-27T07:31:18.203Z,94.23
2022-12-27T07:33:46.744Z,93.75
2022-12-27T07:36:17.469Z,94.04
2022-12-27T07:38:45.989Z,93.97
2022-12-27T07:41:14.563Z,94.62
2022-12-27T07:43:44.718Z,94.19
2022-12-27T07:46:14.793Z,94.88
2022-12-27T07:48:43.230Z,95.03
2022-12-27T07:51:11.708Z,94.86
2022-12-27T07:53:40.112Z,94.85
2022-12-27T07:56:09.183Z,95.58
2022-12-27T07:58:38.603Z,95.15
2022-12-27T08:01:09.195Z,95.24
2022-12-27T08:03:37.617Z,95.77
2022-12-27T08:06:06.462Z,95.47
2022-12-27T08:08:39.627Z,95.04
2022-12-27T08:11:08.214Z,95.97
2022-12-27T08:13:36.588Z,95.91
2022-12-27T08:16:05.481Z,95.53
2022-12-27T08:18:35.289Z,96.11
2022-12-27T08:21:03.195Z,95.96
2022-12-27T08:23:30.984Z,95.45
2022-12-27T08:25:58.817Z,95.58
2022-12-27T08:28:28.181Z,95.61
2022-12-27T08:30:56.165Z,94.79
2022-12-27T08:33:24.949Z,95.75
2022-12-27T08:35:55.000Z,93.96
2022-12-27T08:38:23.537Z,94.20
2022-12-27T08:40:52.450Z,93.45
2022-12-27T08:43:21.322Z,93.85
2022-12-27T08:45:49.137Z,93.33
2022-12-27T08:48:17.179Z,93.01
2022-12-27T08:50:45.188Z,92.12
2022-12-27T08:53:14.535Z,93.01
2022-12-27T08:55:42.371Z,93.54
2022-12-27T08:58:15.988Z,92.09
2022-12-27T09:00:44.740Z,91.71
2022-12-27T09:03:12.805Z,91.46
2022-12-27T09:05:42.072Z,91.74
2022-12-27T09:08:10.920Z,91.48
2022-12-27T09:10:40.137Z,90.95
2022-12-27T09:13:08.120Z,90.74
2022-12-27T09:15:36.106Z,90.47
2022-12-27T09:18:04.119Z,91.10
2022-12-27T09:20:32.013Z,91.40
2022-12-27T09:23:00.367Z,90.70
2022-12-27T09:25:28.291Z,90.72
2022-12-27T09:27:57.479Z,90.29
2022-12-27T09:30:25.476Z,90.37
2022-12-27T09:32:53.349Z,90.18
2022-12-27T09:35:21.150Z,91.28
2022-12-27T09:37:48.986Z,91.77
2022-12-27T09:40:19.714Z,91.55
2022-12-27T09:43:12.599Z,90.69
2022-12-27T09:45:50.073Z,91.57
2022-12-27T09:48:31.021Z,91.64
2022-12-27T09:51:05.280Z,90.83
2022-12-27T09:53:42.792Z,90.56
2022-12-27T09:56:14.033Z,91.49
2022-12-27T09:58:48.429Z,91.28
2022-12-27T10:01:22.577Z,91.06
2022-12-27T10:03:51.278Z,90.95
2022-12-27T10:06:42.893Z,89.95
2022-12-27T10:09:30.664Z,90.09
2022-12-27T10:12:05.691Z,90.66
2022-12-27T10:14:49.716Z,91.11
2022-12-27T10:17:35.996Z,90.48
2022-12-27T10:20:19.179Z,90.20
2022-12-27T10:22:50.518Z,90.59
2022-12-27T10:25:23.216Z,90.07
2022-12-27T10:27:52.334Z,89.63
2022-12-27T10:30:21.989Z,90.10
2022-12-27T10:32:51.556Z,89.67
2022-12-27T10:35:21.075Z,88.46
2022-12-27T10:37:50.033Z,87.83
2022-12-27T10:40:23.633Z,87.44
2022-12-27T10:43:03.755Z,87.48
2022-12-27T10:45:34.744Z,87.57
2022-12-27T10:48:17.826Z,88.39
2022-12-27T10:50:49.883Z,88.30
2022-12-27T10:53:31.021Z,88.52
2022-12-27T10:56:08.805Z,88.05
2022-12-27T10:58:41.019Z,87.97
2022-12-27T11:01:17.535Z,87.08
2022-12-27T11:03:47.143Z,87.69
2022-12-27T11:06:24.602Z,88.12
2022-12-27T11:08:54.407Z,86.40
2022-12-27T11:11:24.481Z,86.59
2022-12-27T11:13:53.078Z,86.33
2022-12-27T11:16:29.060Z,87.33
2022-12-27T11:19:00.171Z,86.95
2022-12-27T11:21:30.468Z,86.32
2022-12-27T11:24:01.937Z,86.35
2022-12-27T11:26:40.566Z,85.91
2022-12-27T11:29:19.397Z,85.51
2022-12-27T11:31:49.350Z,84.68
2022-12-27T11:34:22.303Z,84.34
2022-12-27T11:36:52.489Z,85.00
2022-12-27T11:39:44.011Z,84.56
2022-12-27T11:42:19.255Z,83.16
2022-12-27T11:44:56.405Z,82.76
2022-12-27T11:47:33.076Z,82.45
2022-12-27T11:50:23.124Z,82.09
2022-12-27T11:53:22.238Z,83.52
2022-12-27T11:56:14.476Z,81.78
2022-12-27T11:59:03.223Z,81.64
2022-12-27T12:01:46.247Z,83.05
2022-12-27T12:04:54.680Z,82.61
2022-12-27T12:07:43.233Z,82.93
2022-12-27T12:10:23.166Z,82.73
2022-12-27T12:13:10.936Z,81.85
2022-12-27T12:15:57.589Z,82.33
2022-12-27T12:18:40.409Z,81.91
2022-12-27T12:21:31.820Z,81.44
2022-12-27T12:24:38.743Z,82.41
2022-12-27T12:27:25.630Z,81.60
2022-12-27T12:30:27.048Z,82.44
2022-12-27T12:33:37.477Z,82.31
2022-12-27T12:36:26.728Z,82.84
2022-12-27T12:39:02.734Z,82.49
2022-12-27T12:41:55.407Z,81.55
2022-12-27T12:44:45.524Z,81.32
2022-12-27T12:47:27.978Z,82.43
2022-12-27T12:50:13.174Z,80.88
2022-12-27T12:53:01.808Z,81.34
2022-12-27T12:55:40.831Z,81.95
2022-12-27T12:58:25.628Z,81.76
2022-12-27T13:01:08.674Z,80.61
2022-12-27T13:03:59.328Z,80.05
2022-12-27T13:06:49.088Z,78.56
2022-12-27T13:09:31.185Z,79.44
2022-12-27T13:12:06.040Z,77.91
2022-12-27T13:14:56.164Z,79.15
2022-12-27T13:17:32.958Z,77.79
2022-12-27T13:20:23.212Z,77.35
2022-12-27T13:23:04.264Z,78.94
2022-12-27T13:25:42.298Z,77.20
2022-12-27T13:28:29.825Z,77.07
2022-12-27T13:31:07.131Z,76.08
2022-12-27T13:33:48.500Z,76.43
2022-12-27T13:36:28.037Z,76.08
2022-12-27T13:39:15.225Z,76.78
2022-12-27T13:41:59.332Z,76.69
2022-12-27T13:44:44.282Z,77.98
2022-12-27T13:47:42.963Z,77.21
2022-12-27T13:50:56.571Z,76.99
2022-12-27T13:54:05.990Z,77.87
2022-12-27T13:56:57.226Z,78.06
2022-12-27T13:59:44.835Z,78.00
2022-12-27T14:02:45.554Z,77.93
2022-12-27T14:06:00.918Z,77.72
2022-12-27T14:08:49.904Z,77.48
2022-12-27T14:11:34.211Z,77.94
2022-12-27T14:14:05.148Z,78.57
2022-12-27T14:16:43.439Z,78.18
2022-12-27T14:19:50.666Z,79.21
2022-12-27T14:22:35.192Z,79.56
2022-12-27T14:25:44.548Z,78.54
2022-12-27T14:29:03.243Z,79.08
2022-12-27T14:32:22.397Z,78.52
2022-12-27T14:35:30.099Z,78.12
2022-12-27T14:38:36.964Z,78.38
2022-12-27T14:41:37.419Z,78.82
2022-12-27T14:44:50.121Z,78.80
2022-12-27T14:47:55.824Z,78.66
2022-12-27T14:51:03.612Z,77.97
2022-12-27T14:54:16.212Z,78.01
2022-12-27T14:56:57.137Z,78.03
2022-12-27T14:59:37.832Z,77.76
2022-12-27T15:02:30.868Z,78.33
2022-12-27T15:05:21.391Z,77.59
2022-12-27T15:08:29.613Z,78.43
2022-12-27T15:11:09.227Z,77.98
2022-12-27T15:13:52.688Z,78.72
2022-12-27T15:16:35.214Z,77.98
2022-12-27T15:19:17.541Z,78.32
2022-12-27T15:21:55.353Z,77.71
2022-12-27T15:24:41.416Z,78.52
2022-12-27T15:27:20.311Z,78.31
2022-12-27T15:30:03.674Z,79.25
2022-12-27T15:32:48.259Z,79.37
2022-12-27T15:35:33.601Z,80.82
2022-12-27T15:38:09.304Z,81.01
2022-12-27T15:40:48.039Z,81.31
2022-12-27T15:43:55.919Z,81.34
2022-12-27T15:46:50.318Z,83.13
2022-12-27T15:49:51.895Z,82.66
2022-12-27T15:52:27.944Z,84.50
2022-12-27T15:55:18.560Z,84.20
2022-12-27T15:58:08.504Z,85.97
2022-12-27T16:00:37.203Z,85.25
2022-12-27T16:03:35.984Z,84.68
2022-12-27T16:06:05.133Z,85.29
2022-12-27T16:08:38.991Z,85.89
2022-12-27T16:11:12.113Z,85.54
2022-12-27T16:13:46.837Z,86.37
2022-12-27T16:16:57.429Z,86.60
2022-12-27T16:20:02.926Z,86.02
2022-12-27T16:22:37.969Z,86.19
2022-12-27T16:25:31.029Z,87.33
2022-12-27T16:28:07.706Z,86.84
2022-12-27T16:30:47.815Z,86.08
2022-12-27T16:33:33.985Z,86.23
2022-12-27T16:36:18.587Z,85.66
2022-12-27T16:38:49.556Z,86.90
2022-12-27T16:41:30.376Z,86.65
2022-12-27T16:44:13.620Z,87.45
2022-12-27T16:47:08.291Z,86.55
2022-12-27T16:49:56.587Z,88.04
2022-12-27T16:52:48.819Z,87.65
2022-12-27T16:55:37.408Z,87.86
2022-12-27T16:58:24.513Z,86.75
2022-12-27T17:00:54.006Z,87.41
2022-12-27T17:03:32.265Z,87.94
2022-12-27T17:09:33.802Z,88.51
2022-12-27T17:12:19.491Z,88.60
2022-12-27T17:14:47.917Z,88.89
2022-12-27T17:17:20.789Z,89.64
2022-12-27T17:19:55.170Z,88.63
2022-12-27T17:22:28.834Z,88.79
2022-12-27T17:25:03.962Z,90.03
2022-12-27T17:27:45.017Z,89.77
2022-12-27T17:30:22.942Z,89.21
2022-12-27T17:33:17.933Z,88.59
2022-12-27T17:36:00.274Z,88.89
2022-12-27T17:38:39.517Z,89.55
2022-12-27T17:41:18.888Z,89.55
2022-12-27T17:44:16.136Z,89.33
2022-12-27T17:46:55.587Z,89.22
2022-12-27T17:49:28.057Z,90.07
2022-12-27T17:52:14.877Z,89.96
2022-12-27T17:55:00.311Z,89.94
2022-12-27T17:57:46.894Z,90.07
2022-12-27T18:00:23.829Z,89.71
2022-12-27T18:02:53.144Z,90.44
2022-12-27T18:05:27.379Z,89.86
2022-12-27T18:08:02.966Z,90.74
2022-12-27T18:10:31.739Z,90.49
2022-12-27T18:13:03.781Z,91.05
2022-12-27T18:15:34.686Z,90.96
2022-12-27T18:18:05.185Z,90.76
2022-12-27T18:20:36.451Z,91.47
2022-12-27T18:23:19.179Z,90.76
2022-12-27T18:25:53.246Z,90.77
2022-12-27T18:28:30.485Z,91.49
2022-12-27T18:31:05.772Z,90.54
2022-12-27T18:33:35.807Z,91.07
2022-12-27T18:36:06.901Z,91.25
2022-12-27T18:38:38.794Z,91.28
2022-12-27T18:41:09.679Z,91.62
2022-12-27T18:43:44.698Z,91.38
2022-12-27T18:46:17.497Z,91.52
2022-12-27T18:48:46.212Z,91.10
2022-12-27T18:51:14.371Z,91.67
2022-12-27T18:53:43.898Z,91.52
2022-12-27T18:56:29.100Z,91.84
2022-12-27T18:59:03.681Z,91.86
2022-12-27T19:01:39.553Z,91.21
2022-12-27T19:04:23.466Z,91.53
2022-12-27T19:06:56.100Z,90.77
2022-12-27T19:09:27.255Z,91.54
2022-12-27T19:11:57.403Z,91.46
2022-12-27T19:14:30.434Z,91.13
2022-12-27T19:17:06.981Z,90.42
2022-12-27T19:19:38.614Z,90.78
2022-12-27T19:22:34.526Z,90.70
2022-12-27T19:25:05.554Z,90.71
2022-12-27T19:27:33.484Z,90.96
2022-12-27T19:30:02.723Z,90.98
2022-12-27T19:32:35.354Z,91.51
2022-12-27T19:35:05.998Z,91.38
2022-12-27T19:37:35.626Z,91.34
2022-12-27T19:40:03.713Z,91.77
2022-12-27T19:42:34.913Z,91.31
2022-12-27T19:45:04.654Z,91.28
2022-12-27T19:47:34.808Z,91.21
2022-12-27T19:50:02.662Z,91.55
2022-12-27T19:52:30.749Z,91.24
2022-12-27T19:55:02.661Z,91.33
2022-12-27T19:57:30.485Z,92.28
2022-12-27T19:59:58.362Z,91.84
2022-12-27T20:02:27.756Z,91.93
2022-12-27T20:04:56.523Z,92.66
2022-12-27T20:07:26.414Z,91.75
2022-12-27T20:09:54.400Z,92.16
2022-12-27T20:12:22.185Z,92.24
2022-12-27T20:14:50.077Z,92.18
2022-12-27T20:17:17.947Z,92.34
2022-12-27T20:19:47.312Z,91.63
2022-12-27T20:22:15.229Z,92.21
2022-12-27T20:24:43.057Z,91.97
2022-12-27T20:27:10.885Z,92.10
2022-12-27T20:29:38.720Z,92.18
2022-12-27T20:32:06.948Z,92.72
2022-12-27T20:34:34.841Z,92.56
2022-12-27T20:37:04.498Z,92.45
2022-12-27T20:39:32.304Z,92.62
2022-12-27T20:42:00.437Z,92.55
2022-12-27T20:44:29.100Z,92.77
2022-12-27T20:46:56.885Z,93.16
2022-12-27T20:49:24.857Z,93.29
2022-12-27T20:51:52.978Z,92.83
2022-12-27T20:54:22.490Z,92.89
2022-12-27T20:56:50.355Z,92.92
2022-12-27T20:59:18.161Z,93.32
2022-12-27T21:01:46.143Z,92.91
2022-12-27T21:04:14.246Z,92.64
2022-12-27T21:06:42.090Z,92.83
2022-12-27T21:09:10.143Z,93.53
2022-12-27T21:11:39.705Z,92.87
2022-12-27T21:14:07.616Z,92.90
2022-12-27T21:16:36.472Z,93.54
2022-12-27T21:19:05.321Z,93.37
2022-12-27T21:21:35.487Z,92.51
2022-12-27T21:24:03.984Z,93.08
2022-12-27T21:26:33.864Z,93.06
2022-12-27T21:29:05.300Z,93.30
2022-12-27T21:31:33.449Z,93.32
2022-12-27T21:34:02.338Z,93.05
2022-12-27T21:36:34.015Z,92.39
2022-12-27T21:39:03.045Z,92.21
2022-12-27T21:41:33.103Z,92.55
2022-12-27T21:44:01.290Z,92.81
2022-12-27T21:46:32.416Z,92.81
2022-12-27T21:49:01.788Z,92.90
2022-12-27T21:51:30.734Z,92.68
2022-12-27T21:53:58.756Z,92.99
2022-12-27T21:56:27.625Z,92.73
2022-12-27T21:58:56.403Z,93.07
2022-12-27T22:01:25.686Z,93.38
2022-12-27T22:03:56.829Z,93.28
2022-12-27T22:06:27.193Z,93.08
2022-12-27T22:08:57.183Z,93.32
2022-12-27T22:11:25.800Z,93.05
2022-12-27T22:13:53.795Z,93.62
2022-12-27T22:16:23.968Z,93.70
2022-12-27T22:18:52.324Z,93.24
2022-12-27T22:21:24.619Z,93.45
2022-12-27T22:23:55.078Z,93.75
2022-12-27T22:26:24.999Z,93.52
2022-12-27T22:28:52.915Z,94.15
2022-12-27T22:31:22.835Z,94.10
2022-12-27T22:33:51.561Z,94.14
2022-12-27T22:36:22.785Z,95.25
2022-12-27T22:38:53.556Z,95.42
2022-12-27T22:41:25.850Z,95.29
2022-12-27T22:43:55.502Z,95.14
2022-12-27T22:46:23.534Z,95.15
2022-12-27T22:48:52.477Z,95.42
2022-12-27T22:51:24.365Z,94.83
2022-12-27T22:53:52.712Z,94.09
2022-12-27T22:56:22.485Z,94.40
2022-12-27T22:58:50.937Z,94.40
2022-12-27T23:01:21.069Z,93.90
2022-12-27T23:03:49.686Z,93.70
2022-12-27T23:06:18.783Z,94.72
2022-12-27T23:08:48.694Z,94.09
2022-12-27T23:11:18.597Z,94.11
2022-12-27T23:13:47.316Z,94.32
2022-12-27T23:16:15.952Z,94.48
2022-12-27T23:18:43.875Z,94.88
2022-12-27T23:21:21.800Z,94.76
2022-12-27T23:23:53.902Z,95.07
2022-12-27T23:26:24.023Z,94.76
2022-12-27T23:28:53.399Z,95.26
2022-12-27T23:31:22.845Z,95.60
2022-12-27T23:33:51.085Z,95.36
2022-12-27T23:36:20.511Z,95.27
2022-12-27T23:38:49.013Z,95.69
2022-12-27T23:41:21.043Z,95.55
2022-12-27T23:43:52.658Z,95.83
2022-12-27T23:46:23.729Z,96.09
2022-12-27T23:48:51.942Z,95.90
2022-12-27T23:51:20.619Z,95.29
2022-12-27T23:53:48.614Z,95.33
2022-12-27T23:56:19.941Z,95.17
2022-12-27T23:58:48.716Z,95.34
